sensor_id;sensor_type;location;lat;lon;timestamp;pressure;altitude;pressure_sealevel;temperature;humidity
76794;BME280;65745;50.278;18.192;2023-10-08T00:01:33;99434.06;;;17.86;63.95
76794;BME280;65745;50.278;18.192;2023-10-08T00:04:06;99437.31;;;17.80;64.26
76794;BME280;65745;50.278;18.192;2023-10-08T00:06:38;99438.88;;;17.69;64.76
76794;BME280;65745;50.278;18.192;2023-10-08T00:09:10;99436.75;;;17.59;65.52
76794;BME280;65745;50.278;18.192;2023-10-08T00:11:43;99440.86;;;17.53;65.75
76794;BME280;65745;50.278;18.192;2023-10-08T00:14:22;99441.84;;;17.45;66.73
76794;BME280;65745;50.278;18.192;2023-10-08T00:16:55;99443.89;;;17.36;66.94
76794;BME280;65745;50.278;18.192;2023-10-08T00:19:27;99449.22;;;17.29;67.18
76794;BME280;65745;50.278;18.192;2023-10-08T00:22:06;99443.14;;;17.17;68.13
76794;BME280;65745;50.278;18.192;2023-10-08T00:24:40;99441.90;;;17.05;68.33
76794;BME280;65745;50.278;18.192;2023-10-08T00:27:12;99434.73;;;16.94;68.86
76794;BME280;65745;50.278;18.192;2023-10-08T00:29:46;99430.86;;;16.85;69.33
76794;BME280;65745;50.278;18.192;2023-10-08T00:32:18;99429.20;;;16.79;69.40
76794;BME280;65745;50.278;18.192;2023-10-08T00:34:52;99428.76;;;16.73;69.85
76794;BME280;65745;50.278;18.192;2023-10-08T00:37:25;99427.27;;;16.67;70.37
76794;BME280;65745;50.278;18.192;2023-10-08T00:39:58;99431.87;;;16.59;70.65
76794;BME280;65745;50.278;18.192;2023-10-08T00:42:30;99426.18;;;16.53;70.97
76794;BME280;65745;50.278;18.192;2023-10-08T00:45:03;99423.11;;;16.48;71.01
76794;BME280;65745;50.278;18.192;2023-10-08T00:47:37;99427.01;;;16.42;71.31
76794;BME280;65745;50.278;18.192;2023-10-08T00:50:14;99420.80;;;16.38;71.57
76794;BME280;65745;50.278;18.192;2023-10-08T00:52:51;99424.84;;;16.34;71.75
76794;BME280;65745;50.278;18.192;2023-10-08T00:55:31;99427.48;;;16.31;72.25
76794;BME280;65745;50.278;18.192;2023-10-08T00:58:06;99433.61;;;16.27;72.53
76794;BME280;65745;50.278;18.192;2023-10-08T01:00:42;99435.40;;;16.21;73.01
76794;BME280;65745;50.278;18.192;2023-10-08T01:03:17;99430.56;;;16.19;73.52
76794;BME280;65745;50.278;18.192;2023-10-08T01:05:50;99426.23;;;16.18;74.23
76794;BME280;65745;50.278;18.192;2023-10-08T01:08:23;99424.88;;;16.15;74.28
76794;BME280;65745;50.278;18.192;2023-10-08T01:11:20;99424.23;;;16.09;75.94
76794;BME280;65745;50.278;18.192;2023-10-08T01:14:02;99417.73;;;16.00;77.29
76794;BME280;65745;50.278;18.192;2023-10-08T01:16:38;99428.35;;;15.96;76.36
76794;BME280;65745;50.278;18.192;2023-10-08T01:19:12;99435.68;;;15.93;76.01
76794;BME280;65745;50.278;18.192;2023-10-08T01:21:51;99439.58;;;15.85;77.20
76794;BME280;65745;50.278;18.192;2023-10-08T01:24:23;99435.83;;;15.76;77.20
76794;BME280;65745;50.278;18.192;2023-10-08T01:26:58;99432.44;;;15.67;78.55
76794;BME280;65745;50.278;18.192;2023-10-08T01:29:30;99437.52;;;15.61;77.51
76794;BME280;65745;50.278;18.192;2023-10-08T01:32:02;99445.55;;;15.56;77.55
76794;BME280;65745;50.278;18.192;2023-10-08T01:34:40;99465.70;;;15.49;78.13
76794;BME280;65745;50.278;18.192;2023-10-08T01:37:17;99467.19;;;15.34;78.24
76794;BME280;65745;50.278;18.192;2023-10-08T01:39:50;99468.55;;;15.11;78.07
76794;BME280;65745;50.278;18.192;2023-10-08T01:42:22;99479.59;;;14.83;78.04
76794;BME280;65745;50.278;18.192;2023-10-08T01:44:55;99480.90;;;14.57;78.14
76794;BME280;65745;50.278;18.192;2023-10-08T01:47:27;99479.56;;;14.32;78.35
76794;BME280;65745;50.278;18.192;2023-10-08T01:50:01;99482.35;;;14.11;78.60
76794;BME280;65745;50.278;18.192;2023-10-08T01:52:49;99485.66;;;13.90;78.98
76794;BME280;65745;50.278;18.192;2023-10-08T01:55:22;99496.21;;;13.82;78.74
76794;BME280;65745;50.278;18.192;2023-10-08T01:57:54;99498.80;;;13.72;79.14
76794;BME280;65745;50.278;18.192;2023-10-08T02:00:27;99502.42;;;13.60;79.06
76794;BME280;65745;50.278;18.192;2023-10-08T02:02:59;99503.28;;;13.49;79.10
76794;BME280;65745;50.278;18.192;2023-10-08T02:05:32;99510.02;;;13.40;79.46
76794;BME280;65745;50.278;18.192;2023-10-08T02:08:05;99509.80;;;13.27;79.23
76794;BME280;65745;50.278;18.192;2023-10-08T02:10:37;99519.96;;;13.14;79.56
76794;BME280;65745;50.278;18.192;2023-10-08T02:13:11;99519.55;;;13.01;79.78
76794;BME280;65745;50.278;18.192;2023-10-08T02:15:45;99525.73;;;12.91;79.89
76794;BME280;65745;50.278;18.192;2023-10-08T02:18:18;99527.76;;;12.81;79.99
76794;BME280;65745;50.278;18.192;2023-10-08T02:20:51;99522.86;;;12.69;80.23
76794;BME280;65745;50.278;18.192;2023-10-08T02:23:23;99510.70;;;12.57;80.48
76794;BME280;65745;50.278;18.192;2023-10-08T02:25:56;99510.98;;;12.48;79.92
76794;BME280;65745;50.278;18.192;2023-10-08T02:28:28;99516.45;;;12.38;80.90
76794;BME280;65745;50.278;18.192;2023-10-08T02:31:00;99517.63;;;12.33;80.31
76794;BME280;65745;50.278;18.192;2023-10-08T02:33:34;99525.88;;;12.29;81.30
76794;BME280;65745;50.278;18.192;2023-10-08T02:36:06;99537.45;;;12.27;80.69
76794;BME280;65745;50.278;18.192;2023-10-08T02:38:42;99545.71;;;12.24;80.57
76794;BME280;65745;50.278;18.192;2023-10-08T02:41:18;99555.84;;;12.15;81.01
76794;BME280;65745;50.278;18.192;2023-10-08T02:43:50;99551.48;;;12.10;80.87
76794;BME280;65745;50.278;18.192;2023-10-08T02:46:22;99557.13;;;12.04;80.96
76794;BME280;65745;50.278;18.192;2023-10-08T02:48:57;99584.52;;;11.98;80.74
76794;BME280;65745;50.278;18.192;2023-10-08T02:51:29;99593.79;;;11.92;81.21
76794;BME280;65745;50.278;18.192;2023-10-08T02:54:01;99602.33;;;11.84;81.18
76794;BME280;65745;50.278;18.192;2023-10-08T02:56:36;99612.39;;;11.73;81.91
76794;BME280;65745;50.278;18.192;2023-10-08T02:59:10;99631.11;;;11.67;81.60
76794;BME280;65745;50.278;18.192;2023-10-08T03:01:43;99646.73;;;11.60;81.59
76794;BME280;65745;50.278;18.192;2023-10-08T03:04:15;99653.73;;;11.55;82.31
76794;BME280;65745;50.278;18.192;2023-10-08T03:06:51;99640.29;;;11.55;82.04
76794;BME280;65745;50.278;18.192;2023-10-08T03:09:24;99626.63;;;11.52;82.53
76794;BME280;65745;50.278;18.192;2023-10-08T03:11:57;99630.21;;;11.49;82.47
76794;BME280;65745;50.278;18.192;2023-10-08T03:14:29;99617.36;;;11.42;82.53
76794;BME280;65745;50.278;18.192;2023-10-08T03:17:12;99607.14;;;11.37;82.20
76794;BME280;65745;50.278;18.192;2023-10-08T03:19:50;99629.00;;;11.34;82.53
76794;BME280;65745;50.278;18.192;2023-10-08T03:22:22;99652.18;;;11.26;82.07
76794;BME280;65745;50.278;18.192;2023-10-08T03:25:03;99676.95;;;11.22;82.90
76794;BME280;65745;50.278;18.192;2023-10-08T03:27:46;99695.29;;;11.15;82.69
76794;BME280;65745;50.278;18.192;2023-10-08T03:30:19;99705.21;;;11.10;82.67
76794;BME280;65745;50.278;18.192;2023-10-08T03:32:52;99699.47;;;11.05;83.25
76794;BME280;65745;50.278;18.192;2023-10-08T03:35:29;99686.65;;;11.01;83.15
76794;BME280;65745;50.278;18.192;2023-10-08T03:38:07;99694.53;;;10.99;82.98
76794;BME280;65745;50.278;18.192;2023-10-08T03:40:52;99694.48;;;10.96;82.87
76794;BME280;65745;50.278;18.192;2023-10-08T03:43:28;99704.25;;;10.92;83.17
76794;BME280;65745;50.278;18.192;2023-10-08T03:46:13;99713.30;;;10.86;83.72
76794;BME280;65745;50.278;18.192;2023-10-08T03:48:47;99728.38;;;10.81;83.92
76794;BME280;65745;50.278;18.192;2023-10-08T03:51:22;99740.73;;;10.77;83.65
76794;BME280;65745;50.278;18.192;2023-10-08T03:53:58;99735.50;;;10.74;83.92
76794;BME280;65745;50.278;18.192;2023-10-08T03:56:37;99731.17;;;10.73;83.77
76794;BME280;65745;50.278;18.192;2023-10-08T03:59:09;99732.04;;;10.72;84.00
76794;BME280;65745;50.278;18.192;2023-10-08T04:01:45;99735.11;;;10.72;84.13
76794;BME280;65745;50.278;18.192;2023-10-08T04:04:19;99745.80;;;10.72;84.31
76794;BME280;65745;50.278;18.192;2023-10-08T04:06:55;99752.84;;;10.71;84.10
76794;BME280;65745;50.278;18.192;2023-10-08T04:09:47;99772.58;;;10.66;84.24
76794;BME280;65745;50.278;18.192;2023-10-08T04:12:21;99781.13;;;10.62;84.66
76794;BME280;65745;50.278;18.192;2023-10-08T04:14:53;99791.73;;;10.58;84.93
76794;BME280;65745;50.278;18.192;2023-10-08T04:17:26;99806.43;;;10.52;84.83
76794;BME280;65745;50.278;18.192;2023-10-08T04:19:59;99814.66;;;10.50;84.84
76794;BME280;65745;50.278;18.192;2023-10-08T04:22:39;99819.42;;;10.46;85.13
76794;BME280;65745;50.278;18.192;2023-10-08T04:25:12;99819.84;;;10.42;85.57
76794;BME280;65745;50.278;18.192;2023-10-08T04:27:45;99822.48;;;10.36;85.51
76794;BME280;65745;50.278;18.192;2023-10-08T04:30:20;99822.56;;;10.32;85.20
76794;BME280;65745;50.278;18.192;2023-10-08T04:32:53;99835.42;;;10.29;84.84
76794;BME280;65745;50.278;18.192;2023-10-08T04:35:25;99855.30;;;10.24;85.22
76794;BME280;65745;50.278;18.192;2023-10-08T04:37:58;99855.55;;;10.20;85.10
76794;BME280;65745;50.278;18.192;2023-10-08T04:40:30;99860.15;;;10.17;85.27
76794;BME280;65745;50.278;18.192;2023-10-08T04:43:10;99881.94;;;10.15;86.06
76794;BME280;65745;50.278;18.192;2023-10-08T04:45:42;99884.24;;;10.11;85.67
76794;BME280;65745;50.278;18.192;2023-10-08T04:48:14;99890.89;;;10.08;86.69
76794;BME280;65745;50.278;18.192;2023-10-08T04:50:52;99887.93;;;10.06;85.81
76794;BME280;65745;50.278;18.192;2023-10-08T04:53:30;99885.42;;;10.02;86.29
76794;BME280;65745;50.278;18.192;2023-10-08T04:56:09;99889.21;;;10.02;85.71
76794;BME280;65745;50.278;18.192;2023-10-08T04:58:48;99890.66;;;9.97;85.73
76794;BME280;65745;50.278;18.192;2023-10-08T05:01:20;99890.70;;;9.92;85.95
76794;BME280;65745;50.278;18.192;2023-10-08T05:03:59;99888.79;;;9.91;86.05
76794;BME280;65745;50.278;18.192;2023-10-08T05:06:56;99887.07;;;9.91;85.74
76794;BME280;65745;50.278;18.192;2023-10-08T05:10:03;99889.84;;;9.92;85.79
76794;BME280;65745;50.278;18.192;2023-10-08T05:13:01;99897.34;;;9.88;85.98
76794;BME280;65745;50.278;18.192;2023-10-08T05:15:46;99895.05;;;9.86;85.88
76794;BME280;65745;50.278;18.192;2023-10-08T05:18:33;99901.55;;;9.85;86.07
76794;BME280;65745;50.278;18.192;2023-10-08T05:21:25;99908.91;;;9.83;86.09
76794;BME280;65745;50.278;18.192;2023-10-08T05:24:05;99910.92;;;9.80;86.34
76794;BME280;65745;50.278;18.192;2023-10-08T05:26:43;99915.66;;;9.77;86.50
76794;BME280;65745;50.278;18.192;2023-10-08T05:29:30;99917.19;;;9.76;86.14
76794;BME280;65745;50.278;18.192;2023-10-08T05:32:19;99925.59;;;9.75;86.77
76794;BME280;65745;50.278;18.192;2023-10-08T05:35:17;99945.69;;;9.73;86.48
76794;BME280;65745;50.278;18.192;2023-10-08T05:38:06;99965.46;;;9.73;86.81
76794;BME280;65745;50.278;18.192;2023-10-08T05:40:47;99967.41;;;9.69;86.65
76794;BME280;65745;50.278;18.192;2023-10-08T05:43:37;99948.14;;;9.68;86.67
76794;BME280;65745;50.278;18.192;2023-10-08T05:46:35;99934.36;;;9.68;86.50
76794;BME280;65745;50.278;18.192;2023-10-08T05:49:18;99949.48;;;9.67;87.54
76794;BME280;65745;50.278;18.192;2023-10-08T05:52:07;99963.09;;;9.67;86.60
76794;BME280;65745;50.278;18.192;2023-10-08T05:55:12;99975.42;;;9.66;87.91
76794;BME280;65745;50.278;18.192;2023-10-08T05:58:01;99979.45;;;9.68;87.30
76794;BME280;65745;50.278;18.192;2023-10-08T06:00:55;99987.89;;;9.70;88.08
76794;BME280;65745;50.278;18.192;2023-10-08T06:03:38;99996.89;;;9.71;87.25
76794;BME280;65745;50.278;18.192;2023-10-08T06:06:31;100000.41;;;9.75;86.86
76794;BME280;65745;50.278;18.192;2023-10-08T06:09:18;100002.36;;;9.77;86.87
76794;BME280;65745;50.278;18.192;2023-10-08T06:11:53;100006.89;;;9.79;86.79
76794;BME280;65745;50.278;18.192;2023-10-08T06:14:38;100014.70;;;9.82;87.10
76794;BME280;65745;50.278;18.192;2023-10-08T06:17:28;100011.89;;;9.80;87.89
76794;BME280;65745;50.278;18.192;2023-10-08T06:20:28;100012.81;;;9.82;87.34
76794;BME280;65745;50.278;18.192;2023-10-08T06:23:00;100017.15;;;9.84;86.97
76794;BME280;65745;50.278;18.192;2023-10-08T06:25:38;100029.48;;;9.81;86.97
76794;BME280;65745;50.278;18.192;2023-10-08T06:28:17;100034.05;;;9.78;86.70
76794;BME280;65745;50.278;18.192;2023-10-08T06:30:51;100041.77;;;9.78;86.95
76794;BME280;65745;50.278;18.192;2023-10-08T06:33:25;100043.22;;;9.74;87.63
76794;BME280;65745;50.278;18.192;2023-10-08T06:36:02;100048.40;;;9.75;87.16
76794;BME280;65745;50.278;18.192;2023-10-08T06:38:45;100053.42;;;9.76;87.21
76794;BME280;65745;50.278;18.192;2023-10-08T06:41:19;100043.67;;;9.77;87.33
76794;BME280;65745;50.278;18.192;2023-10-08T06:44:20;100050.06;;;9.79;87.10
76794;BME280;65745;50.278;18.192;2023-10-08T06:46:53;100057.17;;;9.81;86.38
76794;BME280;65745;50.278;18.192;2023-10-08T06:49:25;100063.77;;;9.84;86.45
76794;BME280;65745;50.278;18.192;2023-10-08T06:51:57;100065.78;;;9.82;86.71
76794;BME280;65745;50.278;18.192;2023-10-08T06:54:29;100069.38;;;9.81;86.48
76794;BME280;65745;50.278;18.192;2023-10-08T06:57:05;100074.83;;;9.79;86.80
76794;BME280;65745;50.278;18.192;2023-10-08T06:59:45;100081.36;;;9.78;86.41
76794;BME280;65745;50.278;18.192;2023-10-08T07:02:17;100078.64;;;9.80;86.28
76794;BME280;65745;50.278;18.192;2023-10-08T07:04:51;100077.66;;;9.82;86.29
76794;BME280;65745;50.278;18.192;2023-10-08T07:07:24;100085.55;;;9.89;86.40
76794;BME280;65745;50.278;18.192;2023-10-08T07:09:59;100089.55;;;9.97;86.32
76794;BME280;65745;50.278;18.192;2023-10-08T07:12:31;100095.16;;;10.01;86.02
76794;BME280;65745;50.278;18.192;2023-10-08T07:15:08;100095.95;;;9.98;86.35
76794;BME280;65745;50.278;18.192;2023-10-08T07:17:43;100105.90;;;9.90;86.22
76794;BME280;65745;50.278;18.192;2023-10-08T07:20:15;100109.21;;;9.92;86.51
76794;BME280;65745;50.278;18.192;2023-10-08T07:22:53;100108.33;;;9.91;86.42
76794;BME280;65745;50.278;18.192;2023-10-08T07:25:25;100107.27;;;9.90;86.28
76794;BME280;65745;50.278;18.192;2023-10-08T07:28:07;100113.80;;;9.90;86.36
76794;BME280;65745;50.278;18.192;2023-10-08T07:30:43;100122.20;;;9.88;86.19
76794;BME280;65745;50.278;18.192;2023-10-08T07:33:15;100121.85;;;9.88;86.21
76794;BME280;65745;50.278;18.192;2023-10-08T07:35:49;100128.14;;;9.85;86.24
76794;BME280;65745;50.278;18.192;2023-10-08T07:38:28;100136.40;;;9.85;86.24
76794;BME280;65745;50.278;18.192;2023-10-08T07:41:00;100145.27;;;9.82;86.24
76794;BME280;65745;50.278;18.192;2023-10-08T07:43:32;100151.91;;;9.79;86.88
76794;BME280;65745;50.278;18.192;2023-10-08T07:46:04;100166.09;;;9.89;86.87
76794;BME280;65745;50.278;18.192;2023-10-08T07:48:36;100167.89;;;9.98;86.55
76794;BME280;65745;50.278;18.192;2023-10-08T07:51:15;100171.98;;;10.03;87.03
76794;BME280;65745;50.278;18.192;2023-10-08T07:53:48;100164.10;;;10.11;87.05
76794;BME280;65745;50.278;18.192;2023-10-08T07:56:20;100172.36;;;10.17;86.48
76794;BME280;65745;50.278;18.192;2023-10-08T07:58:52;100175.85;;;10.18;87.09
76794;BME280;65745;50.278;18.192;2023-10-08T08:01:26;100174.29;;;10.31;86.46
76794;BME280;65745;50.278;18.192;2023-10-08T08:03:58;100183.13;;;10.40;86.11
76794;BME280;65745;50.278;18.192;2023-10-08T08:06:30;100176.67;;;10.51;86.09
76794;BME280;65745;50.278;18.192;2023-10-08T08:09:05;100168.32;;;10.61;86.44
76794;BME280;65745;50.278;18.192;2023-10-08T08:11:48;100169.02;;;10.77;86.53
76794;BME280;65745;50.278;18.192;2023-10-08T08:14:20;100167.83;;;10.92;86.69
76794;BME280;65745;50.278;18.192;2023-10-08T08:16:55;100169.91;;;11.00;85.92
76794;BME280;65745;50.278;18.192;2023-10-08T08:19:45;100170.84;;;11.19;85.96
76794;BME280;65745;50.278;18.192;2023-10-08T08:22:19;100171.08;;;11.30;85.51
76794;BME280;65745;50.278;18.192;2023-10-08T08:24:54;100181.65;;;11.32;85.67
76794;BME280;65745;50.278;18.192;2023-10-08T08:27:35;100186.48;;;11.32;84.70
76794;BME280;65745;50.278;18.192;2023-10-08T08:30:11;100191.92;;;11.29;84.34
76794;BME280;65745;50.278;18.192;2023-10-08T08:32:47;100198.69;;;11.31;84.37
76794;BME280;65745;50.278;18.192;2023-10-08T08:35:23;100199.40;;;11.31;84.78
76794;BME280;65745;50.278;18.192;2023-10-08T08:37:55;100204.40;;;11.32;84.24
76794;BME280;65745;50.278;18.192;2023-10-08T08:40:27;100210.95;;;11.31;83.95
76794;BME280;65745;50.278;18.192;2023-10-08T08:43:00;100217.24;;;11.35;83.75
76794;BME280;65745;50.278;18.192;2023-10-08T08:45:36;100231.05;;;11.43;83.95
76794;BME280;65745;50.278;18.192;2023-10-08T08:48:11;100234.70;;;11.45;83.74
76794;BME280;65745;50.278;18.192;2023-10-08T08:50:45;100232.90;;;11.41;82.49
76794;BME280;65745;50.278;18.192;2023-10-08T08:53:19;100229.89;;;11.37;81.84
76794;BME280;65745;50.278;18.192;2023-10-08T08:55:54;100238.27;;;11.42;81.66
76794;BME280;65745;50.278;18.192;2023-10-08T08:58:26;100245.77;;;11.70;81.86
76794;BME280;65745;50.278;18.192;2023-10-08T09:01:00;100250.98;;;11.88;79.67
76794;BME280;65745;50.278;18.192;2023-10-08T09:03:34;100252.66;;;12.02;78.76
76794;BME280;65745;50.278;18.192;2023-10-08T09:06:08;100255.67;;;12.24;78.90
76794;BME280;65745;50.278;18.192;2023-10-08T09:08:42;100248.69;;;12.48;78.65
76794;BME280;65745;50.278;18.192;2023-10-08T09:11:17;100249.35;;;12.66;77.81
76794;BME280;65745;50.278;18.192;2023-10-08T09:13:49;100252.45;;;12.87;78.01
76794;BME280;65745;50.278;18.192;2023-10-08T09:16:21;100248.70;;;13.11;76.99
76794;BME280;65745;50.278;18.192;2023-10-08T09:18:53;100257.34;;;13.32;75.26
76794;BME280;65745;50.278;18.192;2023-10-08T09:21:25;100262.78;;;13.38;73.42
76794;BME280;65745;50.278;18.192;2023-10-08T09:23:57;100266.80;;;13.41;73.43
76794;BME280;65745;50.278;18.192;2023-10-08T09:26:30;100270.15;;;13.45;72.74
76794;BME280;65745;50.278;18.192;2023-10-08T09:29:02;100273.96;;;13.32;72.76
76794;BME280;65745;50.278;18.192;2023-10-08T09:31:36;100271.83;;;13.17;72.28
76794;BME280;65745;50.278;18.192;2023-10-08T09:34:08;100269.83;;;13.12;72.11
76794;BME280;65745;50.278;18.192;2023-10-08T09:36:41;100272.04;;;13.31;71.92
76794;BME280;65745;50.278;18.192;2023-10-08T09:39:14;100268.21;;;13.54;72.40
76794;BME280;65745;50.278;18.192;2023-10-08T09:41:54;100274.05;;;13.77;69.97
76794;BME280;65745;50.278;18.192;2023-10-08T09:44:27;100275.58;;;13.87;68.81
76794;BME280;65745;50.278;18.192;2023-10-08T09:47:05;100276.65;;;14.04;67.00
76794;BME280;65745;50.278;18.192;2023-10-08T09:49:40;100285.39;;;14.25;65.76
76794;BME280;65745;50.278;18.192;2023-10-08T09:52:15;100293.77;;;14.30;65.18
76794;BME280;65745;50.278;18.192;2023-10-08T09:55:00;100290.37;;;14.50;65.72
76794;BME280;65745;50.278;18.192;2023-10-08T09:57:34;100298.20;;;14.70;64.32
76794;BME280;65745;50.278;18.192;2023-10-08T10:00:09;100294.48;;;14.80;64.11
76794;BME280;65745;50.278;18.192;2023-10-08T10:02:46;100307.14;;;14.83;61.89
76794;BME280;65745;50.278;18.192;2023-10-08T10:05:22;100310.41;;;14.98;62.95
76794;BME280;65745;50.278;18.192;2023-10-08T10:07:57;100305.13;;;15.08;63.08
76794;BME280;65745;50.278;18.192;2023-10-08T10:10:31;100305.91;;;15.20;60.81
76794;BME280;65745;50.278;18.192;2023-10-08T10:13:06;100308.56;;;15.27;60.66
76794;BME280;65745;50.278;18.192;2023-10-08T10:15:39;100315.41;;;15.15;59.72
76794;BME280;65745;50.278;18.192;2023-10-08T10:18:27;100324.96;;;15.16;58.12
76794;BME280;65745;50.278;18.192;2023-10-08T10:21:23;100329.84;;;15.18;58.51
76794;BME280;65745;50.278;18.192;2023-10-08T10:23:53;100330.45;;;15.09;56.62
76794;BME280;65745;50.278;18.192;2023-10-08T10:26:27;100332.04;;;15.11;57.87
76794;BME280;65745;50.278;18.192;2023-10-08T10:29:19;100332.04;;;15.33;57.12
76794;BME280;65745;50.278;18.192;2023-10-08T10:31:52;100329.91;;;15.50;56.48
76794;BME280;65745;50.278;18.192;2023-10-08T10:34:26;100329.36;;;15.44;55.51
76794;BME280;65745;50.278;18.192;2023-10-08T10:37:00;100330.32;;;15.34;54.70
76794;BME280;65745;50.278;18.192;2023-10-08T10:39:39;100335.80;;;15.26;55.86
76794;BME280;65745;50.278;18.192;2023-10-08T10:42:12;100332.21;;;15.33;53.52
76794;BME280;65745;50.278;18.192;2023-10-08T10:44:53;100338.55;;;15.21;51.36
76794;BME280;65745;50.278;18.192;2023-10-08T10:47:27;100341.79;;;15.38;51.25
76794;BME280;65745;50.278;18.192;2023-10-08T10:50:13;100341.36;;;15.70;50.63
76794;BME280;65745;50.278;18.192;2023-10-08T10:52:57;100334.86;;;15.88;50.84
76794;BME280;65745;50.278;18.192;2023-10-08T10:55:41;100335.95;;;15.96;51.62
76794;BME280;65745;50.278;18.192;2023-10-08T10:58:20;100344.48;;;16.00;51.57
76794;BME280;65745;50.278;18.192;2023-10-08T11:00:55;100348.52;;;15.76;51.25
76794;BME280;65745;50.278;18.192;2023-10-08T11:03:35;100353.41;;;15.79;49.16
76794;BME280;65745;50.278;18.192;2023-10-08T11:06:07;100352.36;;;15.80;48.56
76794;BME280;65745;50.278;18.192;2023-10-08T11:08:46;100355.09;;;15.71;48.63
76794;BME280;65745;50.278;18.192;2023-10-08T11:11:19;100356.51;;;15.73;49.44
76794;BME280;65745;50.278;18.192;2023-10-08T11:13:59;100357.54;;;15.73;48.14
76794;BME280;65745;50.278;18.192;2023-10-08T11:16:33;100361.17;;;15.72;47.50
76794;BME280;65745;50.278;18.192;2023-10-08T11:19:09;100356.85;;;15.76;47.39
76794;BME280;65745;50.278;18.192;2023-10-08T11:21:53;100356.64;;;15.69;46.97
76794;BME280;65745;50.278;18.192;2023-10-08T11:24:33;100352.10;;;15.65;48.31
76794;BME280;65745;50.278;18.192;2023-10-08T11:27:06;100353.86;;;15.71;46.79
76794;BME280;65745;50.278;18.192;2023-10-08T11:29:47;100356.84;;;15.74;46.26
76794;BME280;65745;50.278;18.192;2023-10-08T11:32:28;100357.36;;;15.73;45.83
76794;BME280;65745;50.278;18.192;2023-10-08T11:35:04;100356.48;;;15.71;46.67
76794;BME280;65745;50.278;18.192;2023-10-08T11:37:48;100352.03;;;15.56;46.07
76794;BME280;65745;50.278;18.192;2023-10-08T11:40:25;100354.46;;;15.55;45.57
76794;BME280;65745;50.278;18.192;2023-10-08T11:43:01;100355.01;;;15.57;46.07
76794;BME280;65745;50.278;18.192;2023-10-08T11:45:34;100355.36;;;15.62;46.46
76794;BME280;65745;50.278;18.192;2023-10-08T11:48:09;100353.91;;;15.52;43.77
76794;BME280;65745;50.278;18.192;2023-10-08T11:50:44;100358.59;;;15.51;43.86
76794;BME280;65745;50.278;18.192;2023-10-08T11:53:16;100362.05;;;15.31;42.01
76794;BME280;65745;50.278;18.192;2023-10-08T11:55:50;100363.31;;;15.36;42.81
76794;BME280;65745;50.278;18.192;2023-10-08T11:58:28;100364.77;;;15.26;42.09
76794;BME280;65745;50.278;18.192;2023-10-08T12:01:08;100367.07;;;15.09;42.22
76794;BME280;65745;50.278;18.192;2023-10-08T12:03:46;100371.61;;;15.12;43.37
76794;BME280;65745;50.278;18.192;2023-10-08T12:06:21;100377.55;;;15.15;43.20
76794;BME280;65745;50.278;18.192;2023-10-08T12:08:55;100377.63;;;15.06;42.79
76794;BME280;65745;50.278;18.192;2023-10-08T12:11:29;100383.88;;;15.07;42.17
76794;BME280;65745;50.278;18.192;2023-10-08T12:14:03;100384.10;;;15.12;42.43
76794;BME280;65745;50.278;18.192;2023-10-08T12:16:36;100379.27;;;15.15;42.26
76794;BME280;65745;50.278;18.192;2023-10-08T12:19:10;100378.96;;;15.19;42.99
76794;BME280;65745;50.278;18.192;2023-10-08T12:21:47;100376.75;;;15.23;42.27
76794;BME280;65745;50.278;18.192;2023-10-08T12:24:20;100383.33;;;15.22;41.60
76794;BME280;65745;50.278;18.192;2023-10-08T12:26:52;100388.35;;;15.22;41.31
76794;BME280;65745;50.278;18.192;2023-10-08T12:29:24;100383.14;;;15.19;42.22
76794;BME280;65745;50.278;18.192;2023-10-08T12:31:57;100380.30;;;15.34;42.18
76794;BME280;65745;50.278;18.192;2023-10-08T12:34:30;100388.52;;;15.57;40.77
76794;BME280;65745;50.278;18.192;2023-10-08T12:37:06;100389.45;;;15.47;39.62
76794;BME280;65745;50.278;18.192;2023-10-08T12:39:38;100387.71;;;15.27;39.44
76794;BME280;65745;50.278;18.192;2023-10-08T12:42:27;100393.98;;;15.12;39.95
76794;BME280;65745;50.278;18.192;2023-10-08T12:45:01;100396.20;;;15.26;40.31
76794;BME280;65745;50.278;18.192;2023-10-08T12:47:42;100393.43;;;15.26;39.47
76794;BME280;65745;50.278;18.192;2023-10-08T12:50:14;100398.96;;;15.45;40.35
76794;BME280;65745;50.278;18.192;2023-10-08T12:52:47;100390.47;;;15.44;39.30
76794;BME280;65745;50.278;18.192;2023-10-08T12:55:24;100391.73;;;15.49;39.81
76794;BME280;65745;50.278;18.192;2023-10-08T12:57:56;100392.27;;;15.52;39.01
76794;BME280;65745;50.278;18.192;2023-10-08T13:00:37;100397.95;;;15.67;40.12
76794;BME280;65745;50.278;18.192;2023-10-08T13:03:10;100401.30;;;16.85;40.90
76794;BME280;65745;50.278;18.192;2023-10-08T13:05:46;100402.48;;;18.72;37.44
76794;BME280;65745;50.278;18.192;2023-10-08T13:08:18;100403.77;;;20.91;34.42
76794;BME280;65745;50.278;18.192;2023-10-08T13:10:50;100406.02;;;23.11;32.35
76794;BME280;65745;50.278;18.192;2023-10-08T13:13:22;100402.11;;;25.25;29.76
76794;BME280;65745;50.278;18.192;2023-10-08T13:15:57;100403.48;;;26.30;25.73
76794;BME280;65745;50.278;18.192;2023-10-08T13:18:31;100405.11;;;27.17;24.39
76794;BME280;65745;50.278;18.192;2023-10-08T13:21:04;100403.95;;;27.63;24.69
76794;BME280;65745;50.278;18.192;2023-10-08T13:23:37;100408.86;;;26.51;23.26
76794;BME280;65745;50.278;18.192;2023-10-08T13:26:10;100399.50;;;27.25;22.41
76794;BME280;65745;50.278;18.192;2023-10-08T13:28:48;100394.01;;;28.17;21.92
76794;BME280;65745;50.278;18.192;2023-10-08T13:31:20;100397.38;;;28.33;22.17
76794;BME280;65745;50.278;18.192;2023-10-08T13:33:53;100392.95;;;28.83;20.55